sensor_id;sensor_type;location;lat;lon;timestamp;temperature;humidity
5200;DHT22;2619;47.868;11.892;2022-08-18T00:01:25;20.10;99.90
5200;DHT22;2619;47.868;11.892;2022-08-18T00:03:51;20.10;99.90
5200;DHT22;2619;47.868;11.892;2022-08-18T00:06:17;19.90;99.90
5200;DHT22;2619;47.868;11.892;2022-08-18T00:08:43;19.90;99.90
5200;DHT22;2619;47.868;11.892;2022-08-18T00:11:09;19.80;99.90
5200;DHT22;2619;47.868;11.892;2022-08-18T00:13:35;19.70;99.90
5200;DHT22;2619;47.868;11.892;2022-08-18T00:16:01;19.70;99.90
5200;DHT22;2619;47.868;11.892;2022-08-18T00:18:27;19.70;99.90
5200;DHT22;2619;47.868;11.892;2022-08-18T00:20:52;19.60;99.90
5200;DHT22;2619;47.868;11.892;2022-08-18T00:23:18;19.60;99.90
5200;DHT22;2619;47.868;11.892;2022-08-18T00:25:44;19.50;99.90
5200;DHT22;2619;47.868;11.892;2022-08-18T00:28:10;19.50;99.90
5200;DHT22;2619;47.868;11.892;2022-08-18T00:30:38;19.50;99.90
5200;DHT22;2619;47.868;11.892;2022-08-18T00:33:03;19.40;99.90
5200;DHT22;2619;47.868;11.892;2022-08-18T00:35:35;19.40;99.90
5200;DHT22;2619;47.868;11.892;2022-08-18T00:38:04;19.30;99.90
5200;DHT22;2619;47.868;11.892;2022-08-18T00:40:38;19.20;99.90
5200;DHT22;2619;47.868;11.892;2022-08-18T00:43:07;19.20;99.90
5200;DHT22;2619;47.868;11.892;2022-08-18T00:45:35;19.10;99.90
5200;DHT22;2619;47.868;11.892;2022-08-18T00:48:06;19.00;99.90
5200;DHT22;2619;47.868;11.892;2022-08-18T00:50:56;19.10;99.90
5200;DHT22;2619;47.868;11.892;2022-08-18T00:53:30;19.10;99.90
5200;DHT22;2619;47.868;11.892;2022-08-18T00:56:04;19.00;99.90
5200;DHT22;2619;47.868;11.892;2022-08-18T00:58:38;18.90;99.90
5200;DHT22;2619;47.868;11.892;2022-08-18T01:01:06;18.90;99.90
5200;DHT22;2619;47.868;11.892;2022-08-18T01:03:33;18.90;99.90
5200;DHT22;2619;47.868;11.892;2022-08-18T01:06:10;18.80;99.90
5200;DHT22;2619;47.868;11.892;2022-08-18T01:08:39;18.80;99.90
5200;DHT22;2619;47.868;11.892;2022-08-18T01:11:06;18.70;99.90
5200;DHT22;2619;47.868;11.892;2022-08-18T01:13:32;18.70;99.90
5200;DHT22;2619;47.868;11.892;2022-08-18T01:15:59;18.70;99.90
5200;DHT22;2619;47.868;11.892;2022-08-18T01:18:45;18.70;99.90
5200;DHT22;2619;47.868;11.892;2022-08-18T01:21:30;18.70;99.90
5200;DHT22;2619;47.868;11.892;2022-08-18T01:24:28;18.60;99.90
5200;DHT22;2619;47.868;11.892;2022-08-18T01:27:15;18.60;99.90
5200;DHT22;2619;47.868;11.892;2022-08-18T01:29:44;18.60;99.90
5200;DHT22;2619;47.868;11.892;2022-08-18T01:32:11;18.60;99.90
5200;DHT22;2619;47.868;11.892;2022-08-18T01:34:38;18.60;99.90
5200;DHT22;2619;47.868;11.892;2022-08-18T01:37:04;18.60;99.90
5200;DHT22;2619;47.868;11.892;2022-08-18T01:39:30;18.60;99.90
5200;DHT22;2619;47.868;11.892;2022-08-18T01:41:55;18.60;99.90
5200;DHT22;2619;47.868;11.892;2022-08-18T01:44:21;18.50;99.90
5200;DHT22;2619;47.868;11.892;2022-08-18T01:46:47;18.40;99.90
5200;DHT22;2619;47.868;11.892;2022-08-18T01:49:12;18.50;99.90
5200;DHT22;2619;47.868;11.892;2022-08-18T01:51:38;18.40;99.90
5200;DHT22;2619;47.868;11.892;2022-08-18T01:54:10;18.40;99.90
5200;DHT22;2619;47.868;11.892;2022-08-18T01:56:36;18.40;99.90
5200;DHT22;2619;47.868;11.892;2022-08-18T01:59:02;18.30;99.90
5200;DHT22;2619;47.868;11.892;2022-08-18T02:01:27;18.30;99.90
5200;DHT22;2619;47.868;11.892;2022-08-18T02:03:55;18.30;99.90
5200;DHT22;2619;47.868;11.892;2022-08-18T02:06:24;18.30;99.90
5200;DHT22;2619;47.868;11.892;2022-08-18T02:08:49;18.30;99.90
5200;DHT22;2619;47.868;11.892;2022-08-18T02:11:15;18.30;99.90
5200;DHT22;2619;47.868;11.892;2022-08-18T02:13:40;18.30;99.90
5200;DHT22;2619;47.868;11.892;2022-08-18T02:16:06;18.40;99.90
5200;DHT22;2619;47.868;11.892;2022-08-18T02:18:35;18.30;99.90
5200;DHT22;2619;47.868;11.892;2022-08-18T02:21:16;18.20;99.90
5200;DHT22;2619;47.868;11.892;2022-08-18T02:23:43;18.10;99.90
5200;DHT22;2619;47.868;11.892;2022-08-18T02:26:12;18.00;99.90
5200;DHT22;2619;47.868;11.892;2022-08-18T02:28:39;17.90;99.90
5200;DHT22;2619;47.868;11.892;2022-08-18T02:31:10;18.00;99.90
5200;DHT22;2619;47.868;11.892;2022-08-18T02:33:36;18.00;99.90
5200;DHT22;2619;47.868;11.892;2022-08-18T02:36:03;17.90;99.90
5200;DHT22;2619;47.868;11.892;2022-08-18T02:38:29;17.90;99.90
5200;DHT22;2619;47.868;11.892;2022-08-18T02:41:00;17.90;99.90
5200;DHT22;2619;47.868;11.892;2022-08-18T02:43:26;17.70;99.90
5200;DHT22;2619;47.868;11.892;2022-08-18T02:45:53;17.70;99.90
5200;DHT22;2619;47.868;11.892;2022-08-18T02:48:19;17.60;99.90
5200;DHT22;2619;47.868;11.892;2022-08-18T02:51:10;17.60;99.90
5200;DHT22;2619;47.868;11.892;2022-08-18T02:53:41;17.60;99.90
5200;DHT22;2619;47.868;11.892;2022-08-18T02:56:10;17.50;99.90
5200;DHT22;2619;47.868;11.892;2022-08-18T02:58:42;17.30;99.90
5200;DHT22;2619;47.868;11.892;2022-08-18T03:01:08;17.30;99.90
5200;DHT22;2619;47.868;11.892;2022-08-18T03:03:33;17.30;99.90
5200;DHT22;2619;47.868;11.892;2022-08-18T03:06:00;17.20;99.90
5200;DHT22;2619;47.868;11.892;2022-08-18T03:08:26;17.10;99.90
5200;DHT22;2619;47.868;11.892;2022-08-18T03:10:51;17.10;99.90
5200;DHT22;2619;47.868;11.892;2022-08-18T03:13:18;17.10;99.90
5200;DHT22;2619;47.868;11.892;2022-08-18T03:15:44;17.00;99.90
5200;DHT22;2619;47.868;11.892;2022-08-18T03:18:09;16.90;99.90
5200;DHT22;2619;47.868;11.892;2022-08-18T03:20:36;16.80;99.90
5200;DHT22;2619;47.868;11.892;2022-08-18T03:23:03;16.70;99.90
5200;DHT22;2619;47.868;11.892;2022-08-18T03:25:29;16.60;99.90
5200;DHT22;2619;47.868;11.892;2022-08-18T03:27:54;16.60;99.90
5200;DHT22;2619;47.868;11.892;2022-08-18T03:30:20;16.60;99.90
5200;DHT22;2619;47.868;11.892;2022-08-18T03:32:46;16.60;99.90
5200;DHT22;2619;47.868;11.892;2022-08-18T03:35:12;16.60;99.90
5200;DHT22;2619;47.868;11.892;2022-08-18T03:37:39;16.80;99.90
5200;DHT22;2619;47.868;11.892;2022-08-18T03:40:05;16.80;99.90
5200;DHT22;2619;47.868;11.892;2022-08-18T03:42:31;16.90;99.90
5200;DHT22;2619;47.868;11.892;2022-08-18T03:44:57;16.90;99.90
5200;DHT22;2619;47.868;11.892;2022-08-18T03:47:23;16.80;99.90
5200;DHT22;2619;47.868;11.892;2022-08-18T03:49:48;16.60;99.90
5200;DHT22;2619;47.868;11.892;2022-08-18T03:52:14;16.50;99.90
5200;DHT22;2619;47.868;11.892;2022-08-18T03:54:40;16.40;99.90
5200;DHT22;2619;47.868;11.892;2022-08-18T03:57:10;16.40;99.90
5200;DHT22;2619;47.868;11.892;2022-08-18T03:59:37;16.30;99.90
5200;DHT22;2619;47.868;11.892;2022-08-18T04:02:05;16.30;99.90
5200;DHT22;2619;47.868;11.892;2022-08-18T04:04:31;16.10;99.90
5200;DHT22;2619;47.868;11.892;2022-08-18T04:07:05;16.10;99.90
5200;DHT22;2619;47.868;11.892;2022-08-18T04:09:32;16.00;99.90
5200;DHT22;2619;47.868;11.892;2022-08-18T04:12:04;16.00;99.90
5200;DHT22;2619;47.868;11.892;2022-08-18T04:14:33;15.90;99.90
5200;DHT22;2619;47.868;11.892;2022-08-18T04:16:59;15.90;99.90
5200;DHT22;2619;47.868;11.892;2022-08-18T04:19:24;15.90;99.90
5200;DHT22;2619;47.868;11.892;2022-08-18T04:21:51;15.70;99.90
5200;DHT22;2619;47.868;11.892;2022-08-18T04:24:18;15.70;99.90
5200;DHT22;2619;47.868;11.892;2022-08-18T04:26:46;15.60;99.90
5200;DHT22;2619;47.868;11.892;2022-08-18T04:29:14;15.70;99.90
5200;DHT22;2619;47.868;11.892;2022-08-18T04:31:41;15.80;99.90
5200;DHT22;2619;47.868;11.892;2022-08-18T04:34:06;15.80;99.90
5200;DHT22;2619;47.868;11.892;2022-08-18T04:36:34;15.90;99.90
5200;DHT22;2619;47.868;11.892;2022-08-18T04:39:02;15.90;99.90
5200;DHT22;2619;47.868;11.892;2022-08-18T04:41:28;16.10;99.90
5200;DHT22;2619;47.868;11.892;2022-08-18T04:43:57;16.30;99.90
5200;DHT22;2619;47.868;11.892;2022-08-18T04:46:25;16.50;99.90
5200;DHT22;2619;47.868;11.892;2022-08-18T04:48:51;16.70;99.90
5200;DHT22;2619;47.868;11.892;2022-08-18T04:51:19;16.90;99.90
5200;DHT22;2619;47.868;11.892;2022-08-18T04:53:47;16.90;99.90
5200;DHT22;2619;47.868;11.892;2022-08-18T04:56:35;17.10;99.90
5200;DHT22;2619;47.868;11.892;2022-08-18T05:01:31;17.70;99.90
5200;DHT22;2619;47.868;11.892;2022-08-18T05:03:58;17.90;99.90
5200;DHT22;2619;47.868;11.892;2022-08-18T05:06:25;18.40;99.90
5200;DHT22;2619;47.868;11.892;2022-08-18T05:08:52;18.80;99.90
5200;DHT22;2619;47.868;11.892;2022-08-18T05:11:19;18.90;99.90
5200;DHT22;2619;47.868;11.892;2022-08-18T05:13:46;18.90;99.90
5200;DHT22;2619;47.868;11.892;2022-08-18T05:16:12;18.80;99.90
5200;DHT22;2619;47.868;11.892;2022-08-18T05:18:38;18.80;99.90
5200;DHT22;2619;47.868;11.892;2022-08-18T05:21:08;18.80;99.90
5200;DHT22;2619;47.868;11.892;2022-08-18T05:23:40;19.00;99.90
5200;DHT22;2619;47.868;11.892;2022-08-18T05:26:06;19.20;99.90
5200;DHT22;2619;47.868;11.892;2022-08-18T05:28:33;19.30;99.90
5200;DHT22;2619;47.868;11.892;2022-08-18T05:31:06;19.50;99.90
5200;DHT22;2619;47.868;11.892;2022-08-18T05:33:32;20.00;99.90
5200;DHT22;2619;47.868;11.892;2022-08-18T05:36:05;20.40;99.90
5200;DHT22;2619;47.868;11.892;2022-08-18T05:38:40;20.80;99.90
5200;DHT22;2619;47.868;11.892;2022-08-18T05:41:14;21.00;99.90
5200;DHT22;2619;47.868;11.892;2022-08-18T05:43:44;21.10;99.90
5200;DHT22;2619;47.868;11.892;2022-08-18T05:46:11;21.50;99.90
5200;DHT22;2619;47.868;11.892;2022-08-18T05:48:37;21.90;99.90
5200;DHT22;2619;47.868;11.892;2022-08-18T05:51:26;22.70;99.90
5200;DHT22;2619;47.868;11.892;2022-08-18T05:53:53;23.20;99.90
5200;DHT22;2619;47.868;11.892;2022-08-18T05:56:39;23.30;99.90
5200;DHT22;2619;47.868;11.892;2022-08-18T05:59:34;23.10;99.90
5200;DHT22;2619;47.868;11.892;2022-08-18T06:02:34;23.30;99.90
5200;DHT22;2619;47.868;11.892;2022-08-18T06:07:53;23.30;99.90
5200;DHT22;2619;47.868;11.892;2022-08-18T06:10:21;23.90;99.90
5200;DHT22;2619;47.868;11.892;2022-08-18T06:12:50;24.10;99.90
5200;DHT22;2619;47.868;11.892;2022-08-18T06:23:34;23.40;99.90
5200;DHT22;2619;47.868;11.892;2022-08-18T06:38:22;21.90;99.90
5200;DHT22;2619;47.868;11.892;2022-08-18T06:43:35;21.30;99.90
5200;DHT22;2619;47.868;11.892;2022-08-18T06:46:09;21.10;99.90
5200;DHT22;2619;47.868;11.892;2022-08-18T06:48:49;21.00;99.90
5200;DHT22;2619;47.868;11.892;2022-08-18T06:51:18;21.00;99.90
5200;DHT22;2619;47.868;11.892;2022-08-18T06:54:06;21.00;99.90
5200;DHT22;2619;47.868;11.892;2022-08-18T06:56:47;21.30;99.90
5200;DHT22;2619;47.868;11.892;2022-08-18T07:01:47;21.50;99.90
5200;DHT22;2619;47.868;11.892;2022-08-18T07:04:40;21.80;99.90
5200;DHT22;2619;47.868;11.892;2022-08-18T07:07:14;22.00;99.90
5200;DHT22;2619;47.868;11.892;2022-08-18T07:09:40;22.30;99.90
5200;DHT22;2619;47.868;11.892;2022-08-18T07:12:08;22.40;99.90
5200;DHT22;2619;47.868;11.892;2022-08-18T07:14:47;22.50;99.90
5200;DHT22;2619;47.868;11.892;2022-08-18T07:17:22;22.50;99.90
5200;DHT22;2619;47.868;11.892;2022-08-18T07:19:57;22.90;99.90
5200;DHT22;2619;47.868;11.892;2022-08-18T07:22:23;23.10;99.90
5200;DHT22;2619;47.868;11.892;2022-08-18T07:24:50;23.40;99.90
5200;DHT22;2619;47.868;11.892;2022-08-18T07:30:08;23.60;99.90
5200;DHT22;2619;47.868;11.892;2022-08-18T07:32:52;23.60;99.90
5200;DHT22;2619;47.868;11.892;2022-08-18T07:35:24;23.60;99.90
5200;DHT22;2619;47.868;11.892;2022-08-18T07:37:57;23.70;99.90
5200;DHT22;2619;47.868;11.892;2022-08-18T07:43:00;23.80;99.90
5200;DHT22;2619;47.868;11.892;2022-08-18T07:45:42;24.10;99.90
5200;DHT22;2619;47.868;11.892;2022-08-18T07:48:15;24.30;99.90
5200;DHT22;2619;47.868;11.892;2022-08-18T07:54:02;24.50;99.90
5200;DHT22;2619;47.868;11.892;2022-08-18T07:56:43;24.50;99.90
5200;DHT22;2619;47.868;11.892;2022-08-18T07:59:20;24.50;99.90
5200;DHT22;2619;47.868;11.892;2022-08-18T08:01:59;25.30;99.90
5200;DHT22;2619;47.868;11.892;2022-08-18T08:04:47;25.50;99.90
5200;DHT22;2619;47.868;11.892;2022-08-18T08:07:23;25.70;99.90
5200;DHT22;2619;47.868;11.892;2022-08-18T08:15:26;26.00;99.90
5200;DHT22;2619;47.868;11.892;2022-08-18T08:18:14;26.00;99.90
5200;DHT22;2619;47.868;11.892;2022-08-18T08:20:54;26.10;99.90
5200;DHT22;2619;47.868;11.892;2022-08-18T08:31:48;27.00;99.90
5200;DHT22;2619;47.868;11.892;2022-08-18T08:34:19;27.40;99.90
5200;DHT22;2619;47.868;11.892;2022-08-18T08:36:47;27.70;99.90
5200;DHT22;2619;47.868;11.892;2022-08-18T08:39:26;27.90;99.90
5200;DHT22;2619;47.868;11.892;2022-08-18T08:42:00;28.00;99.90
5200;DHT22;2619;47.868;11.892;2022-08-18T08:44:33;28.00;99.90
5200;DHT22;2619;47.868;11.892;2022-08-18T08:47:05;27.70;99.90
5200;DHT22;2619;47.868;11.892;2022-08-18T08:52:25;27.80;99.90
5200;DHT22;2619;47.868;11.892;2022-08-18T08:54:56;27.70;99.90
5200;DHT22;2619;47.868;11.892;2022-08-18T08:57:28;27.80;99.90
5200;DHT22;2619;47.868;11.892;2022-08-18T08:59:57;27.60;99.90
5200;DHT22;2619;47.868;11.892;2022-08-18T09:05:23;27.50;99.90
5200;DHT22;2619;47.868;11.892;2022-08-18T09:18:48;27.40;99.90
5200;DHT22;2619;47.868;11.892;2022-08-18T09:21:35;27.60;99.90
5200;DHT22;2619;47.868;11.892;2022-08-18T09:24:23;27.50;99.90
5200;DHT22;2619;47.868;11.892;2022-08-18T09:27:12;27.20;98.50
5200;DHT22;2619;47.868;11.892;2022-08-18T09:29:50;27.30;99.90
5200;DHT22;2619;47.868;11.892;2022-08-18T09:37:25;28.00;99.70
5200;DHT22;2619;47.868;11.892;2022-08-18T09:43:16;27.60;99.00
5200;DHT22;2619;47.868;11.892;2022-08-18T09:45:58;28.20;99.60
5200;DHT22;2619;47.868;11.892;2022-08-18T09:48:35;28.60;98.40
5200;DHT22;2619;47.868;11.892;2022-08-18T09:51:35;28.60;97.40
5200;DHT22;2619;47.868;11.892;2022-08-18T09:54:14;28.50;97.90
5200;DHT22;2619;47.868;11.892;2022-08-18T10:07:42;28.50;97.50
5200;DHT22;2619;47.868;11.892;2022-08-18T10:10:38;28.40;96.60
5200;DHT22;2619;47.868;11.892;2022-08-18T10:16:14;28.10;97.10
5200;DHT22;2619;47.868;11.892;2022-08-18T10:29:02;29.10;94.90
5200;DHT22;2619;47.868;11.892;2022-08-18T10:31:30;29.10;95.60
5200;DHT22;2619;47.868;11.892;2022-08-18T10:34:07;29.30;95.50
5200;DHT22;2619;47.868;11.892;2022-08-18T10:36:54;29.30;94.50
5200;DHT22;2619;47.868;11.892;2022-08-18T10:39:21;29.40;95.30
5200;DHT22;2619;47.868;11.892;2022-08-18T10:41:57;29.40;96.10
5200;DHT22;2619;47.868;11.892;2022-08-18T10:44:25;29.50;94.90
5200;DHT22;2619;47.868;11.892;2022-08-18T10:46:52;29.50;94.40
5200;DHT22;2619;47.868;11.892;2022-08-18T10:49:22;29.40;94.50
5200;DHT22;2619;47.868;11.892;2022-08-18T11:05:26;29.50;95.00
5200;DHT22;2619;47.868;11.892;2022-08-18T11:08:03;29.40;95.40
5200;DHT22;2619;47.868;11.892;2022-08-18T11:10:37;29.70;96.00
5200;DHT22;2619;47.868;11.892;2022-08-18T11:18:38;30.60;93.90
5200;DHT22;2619;47.868;11.892;2022-08-18T11:21:23;30.80;92.40
5200;DHT22;2619;47.868;11.892;2022-08-18T11:26:36;31.20;91.90
5200;DHT22;2619;47.868;11.892;2022-08-18T11:31:53;31.40;91.70
5200;DHT22;2619;47.868;11.892;2022-08-18T11:34:29;30.60;92.20
5200;DHT22;2619;47.868;11.892;2022-08-18T11:37:02;30.60;92.30
5200;DHT22;2619;47.868;11.892;2022-08-18T11:39:29;30.80;90.90
5200;DHT22;2619;47.868;11.892;2022-08-18T11:41:55;30.70;91.50
5200;DHT22;2619;47.868;11.892;2022-08-18T11:44:25;30.60;91.20
5200;DHT22;2619;47.868;11.892;2022-08-18T11:47:16;30.60;91.30
5200;DHT22;2619;47.868;11.892;2022-08-18T11:50:13;30.70;92.30
5200;DHT22;2619;47.868;11.892;2022-08-18T11:52:51;30.80;91.00
5200;DHT22;2619;47.868;11.892;2022-08-18T11:55:37;30.40;92.80
5200;DHT22;2619;47.868;11.892;2022-08-18T11:58:04;29.90;92.40
5200;DHT22;2619;47.868;11.892;2022-08-18T12:03:29;28.90;93.80
5200;DHT22;2619;47.868;11.892;2022-08-18T12:05:59;28.60;94.10
5200;DHT22;2619;47.868;11.892;2022-08-18T12:08:33;28.50;94.20
5200;DHT22;2619;47.868;11.892;2022-08-18T12:11:15;28.40;94.50
5200;DHT22;2619;47.868;11.892;2022-08-18T12:13:44;28.50;94.40
5200;DHT22;2619;47.868;11.892;2022-08-18T12:18:38;28.60;94.70
5200;DHT22;2619;47.868;11.892;2022-08-18T12:21:04;28.20;94.90
5200;DHT22;2619;47.868;11.892;2022-08-18T12:23:32;28.60;95.30
5200;DHT22;2619;47.868;11.892;2022-08-18T12:25:58;29.10;94.90
5200;DHT22;2619;47.868;11.892;2022-08-18T12:28:24;28.90;95.00
5200;DHT22;2619;47.868;11.892;2022-08-18T12:30:51;29.50;92.30
5200;DHT22;2619;47.868;11.892;2022-08-18T12:33:18;29.90;92.90
5200;DHT22;2619;47.868;11.892;2022-08-18T12:35:43;30.00;92.30
5200;DHT22;2619;47.868;11.892;2022-08-18T12:38:10;30.30;92.60
5200;DHT22;2619;47.868;11.892;2022-08-18T12:40:36;30.40;92.10
5200;DHT22;2619;47.868;11.892;2022-08-18T12:43:03;30.40;92.20
5200;DHT22;2619;47.868;11.892;2022-08-18T12:45:28;30.50;93.90
5200;DHT22;2619;47.868;11.892;2022-08-18T12:47:55;30.80;92.90
5200;DHT22;2619;47.868;11.892;2022-08-18T12:50:21;30.80;91.90
5200;DHT22;2619;47.868;11.892;2022-08-18T12:52:47;30.40;92.00
5200;DHT22;2619;47.868;11.892;2022-08-18T12:55:12;30.40;90.90
5200;DHT22;2619;47.868;11.892;2022-08-18T12:57:38;30.10;90.90
5200;DHT22;2619;47.868;11.892;2022-08-18T13:00:05;30.00;90.70
5200;DHT22;2619;47.868;11.892;2022-08-18T13:02:32;29.90;91.80
5200;DHT22;2619;47.868;11.892;2022-08-18T13:04:58;29.60;92.70
5200;DHT22;2619;47.868;11.892;2022-08-18T13:07:24;29.70;92.50
5200;DHT22;2619;47.868;11.892;2022-08-18T13:09:49;29.00;93.60
5200;DHT22;2619;47.868;11.892;2022-08-18T13:12:15;28.60;93.70
5200;DHT22;2619;47.868;11.892;2022-08-18T13:14:41;27.70;94.20
5200;DHT22;2619;47.868;11.892;2022-08-18T13:17:07;27.60;95.70
5200;DHT22;2619;47.868;11.892;2022-08-18T13:19:34;27.10;96.40
5200;DHT22;2619;47.868;11.892;2022-08-18T13:21:59;26.60;96.80
5200;DHT22;2619;47.868;11.892;2022-08-18T13:24:25;26.30;97.70
5200;DHT22;2619;47.868;11.892;2022-08-18T13:26:50;25.60;98.30
5200;DHT22;2619;47.868;11.892;2022-08-18T13:29:16;25.40;99.40
5200;DHT22;2619;47.868;11.892;2022-08-18T13:31:43;25.10;99.20
5200;DHT22;2619;47.868;11.892;2022-08-18T13:34:09;25.10;99.80
5200;DHT22;2619;47.868;11.892;2022-08-18T13:36:35;24.90;99.90
5200;DHT22;2619;47.868;11.892;2022-08-18T13:39:19;25.00;99.90
5200;DHT22;2619;47.868;11.892;2022-08-18T13:41:47;25.20;99.90
5200;DHT22;2619;47.868;11.892;2022-08-18T13:44:14;25.00;99.90
5200;DHT22;2619;47.868;11.892;2022-08-18T13:46:42;24.80;99.90
5200;DHT22;2619;47.868;11.892;2022-08-18T13:49:14;24.90;99.90
5200;DHT22;2619;47.868;11.892;2022-08-18T13:51:41;25.00;99.90
5200;DHT22;2619;47.868;11.892;2022-08-18T13:54:08;25.00;99.90
5200;DHT22;2619;47.868;11.892;2022-08-18T13:56:34;25.00;99.90
5200;DHT22;2619;47.868;11.892;2022-08-18T13:59:00;25.00;99.90
5200;DHT22;2619;47.868;11.892;2022-08-18T14:01:26;25.00;99.90
5200;DHT22;2619;47.868;11.892;2022-08-18T14:03:51;24.80;99.90
5200;DHT22;2619;47.868;11.892;2022-08-18T14:06:17;24.60;99.90
5200;DHT22;2619;47.868;11.892;2022-08-18T14:08:46;24.50;99.90
5200;DHT22;2619;47.868;11.892;2022-08-18T14:11:13;24.40;99.90
5200;DHT22;2619;47.868;11.892;2022-08-18T14:13:39;24.30;99.90
5200;DHT22;2619;47.868;11.892;2022-08-18T14:16:06;24.20;99.90
5200;DHT22;2619;47.868;11.892;2022-08-18T14:18:32;24.20;99.90
5200;DHT22;2619;47.868;11.892;2022-08-18T14:20:58;23.90;99.90
5200;DHT22;2619;47.868;11.892;2022-08-18T14:23:42;23.80;99.90
5200;DHT22;2619;47.868;11.892;2022-08-18T14:26:10;23.90;99.90
5200;DHT22;2619;47.868;11.892;2022-08-18T14:28:55;24.00;99.90
5200;DHT22;2619;47.868;11.892;2022-08-18T14:31:21;24.30;99.90
5200;DHT22;2619;47.868;11.892;2022-08-18T14:33:47;24.60;99.90
5200;DHT22;2619;47.868;11.892;2022-08-18T14:36:14;24.60;99.90
5200;DHT22;2619;47.868;11.892;2022-08-18T14:38:40;24.60;99.90
5200;DHT22;2619;47.868;11.892;2022-08-18T14:41:09;24.70;99.90
5200;DHT22;2619;47.868;11.892;2022-08-18T14:43:35;25.00;99.90
5200;DHT22;2619;47.868;11.892;2022-08-18T14:46:02;25.50;99.90
5200;DHT22;2619;47.868;11.892;2022-08-18T14:48:28;25.80;99.90
5200;DHT22;2619;47.868;11.892;2022-08-18T14:50:55;26.20;99.90
5200;DHT22;2619;47.868;11.892;2022-08-18T14:53:27;26.50;99.90
5200;DHT22;2619;47.868;11.892;2022-08-18T14:55:53;26.70;99.90
5200;DHT22;2619;47.868;11.892;2022-08-18T14:58:20;26.70;99.90
5200;DHT22;2619;47.868;11.892;2022-08-18T15:00:47;26.70;99.90
5200;DHT22;2619;47.868;11.892;2022-08-18T15:03:13;26.80;99.90
5200;DHT22;2619;47.868;11.892;2022-08-18T15:05:38;27.00;99.90
5200;DHT22;2619;47.868;11.892;2022-08-18T15:08:04;27.00;99.90
5200;DHT22;2619;47.868;11.892;2022-08-18T15:10:31;27.20;99.90
5200;DHT22;2619;47.868;11.892;2022-08-18T15:12:57;27.50;99.90
5200;DHT22;2619;47.868;11.892;2022-08-18T15:15:24;27.70;99.90
5200;DHT22;2619;47.868;11.892;2022-08-18T15:17:50;27.90;99.90
5200;DHT22;2619;47.868;11.892;2022-08-18T15:20:16;28.00;99.90
5200;DHT22;2619;47.868;11.892;2022-08-18T15:22:44;27.90;99.90
5200;DHT22;2619;47.868;11.892;2022-08-18T15:25:29;27.80;99.90
5200;DHT22;2619;47.868;11.892;2022-08-18T15:28:07;27.40;99.90
5200;DHT22;2619;47.868;11.892;2022-08-18T15:30:34;26.70;99.90
5200;DHT22;2619;47.868;11.892;2022-08-18T15:33:03;26.00;99.90
5200;DHT22;2619;47.868;11.892;2022-08-18T15:35:29;25.40;99.90
5200;DHT22;2619;47.868;11.892;2022-08-18T15:37:54;24.90;99.90
5200;DHT22;2619;47.868;11.892;2022-08-18T15:40:23;24.60;99.90
5200;DHT22;2619;47.868;11.892;2022-08-18T15:42:52;24.50;99.90
5200;DHT22;2619;47.868;11.892;2022-08-18T15:45:26;24.40;99.90
5200;DHT22;2619;47.868;11.892;2022-08-18T15:47:52;24.30;99.90
5200;DHT22;2619;47.868;11.892;2022-08-18T15:50:19;24.30;99.90
5200;DHT22;2619;47.868;11.892;2022-08-18T15:53:03;24.30;99.90
5200;DHT22;2619;47.868;11.892;2022-08-18T15:55:30;24.20;99.90
5200;DHT22;2619;47.868;11.892;2022-08-18T15:57:56;24.00;99.90
5200;DHT22;2619;47.868;11.892;2022-08-18T16:00:23;24.00;99.90
5200;DHT22;2619;47.868;11.892;2022-08-18T16:02:51;24.10;99.90
5200;DHT22;2619;47.868;11.892;2022-08-18T16:05:18;24.30;99.90
5200;DHT22;2619;47.868;11.892;2022-08-18T16:07:46;24.70;99.90
5200;DHT22;2619;47.868;11.892;2022-08-18T16:10:15;25.20;99.90
5200;DHT22;2619;47.868;11.892;2022-08-18T16:12:41;25.90;99.90
5200;DHT22;2619;47.868;11.892;2022-08-18T16:15:07;26.20;99.90
5200;DHT22;2619;47.868;11.892;2022-08-18T16:17:36;26.50;99.90
5200;DHT22;2619;47.868;11.892;2022-08-18T16:20:04;26.60;99.90
5200;DHT22;2619;47.868;11.892;2022-08-18T16:22:30;26.50;99.90
5200;DHT22;2619;47.868;11.892;2022-08-18T16:24:57;26.50;99.90
5200;DHT22;2619;47.868;11.892;2022-08-18T16:27:23;26.40;99.90
5200;DHT22;2619;47.868;11.892;2022-08-18T16:29:49;26.30;99.90
5200;DHT22;2619;47.868;11.892;2022-08-18T16:32:15;26.30;99.90
5200;DHT22;2619;47.868;11.892;2022-08-18T16:34:40;26.20;99.90
5200;DHT22;2619;47.868;11.892;2022-08-18T16:37:06;26.20;99.90
5200;DHT22;2619;47.868;11.892;2022-08-18T16:39:35;26.00;99.90
5200;DHT22;2619;47.868;11.892;2022-08-18T16:42:01;25.80;99.90
5200;DHT22;2619;47.868;11.892;2022-08-18T16:44:27;25.70;99.90
5200;DHT22;2619;47.868;11.892;2022-08-18T16:46:54;25.40;99.90
5200;DHT22;2619;47.868;11.892;2022-08-18T16:49:20;25.20;99.90
5200;DHT22;2619;47.868;11.892;2022-08-18T16:51:45;25.00;99.90
5200;DHT22;2619;47.868;11.892;2022-08-18T16:54:11;24.90;99.90
5200;DHT22;2619;47.868;11.892;2022-08-18T16:56:38;24.80;99.90
5200;DHT22;2619;47.868;11.892;2022-08-18T16:59:04;24.70;99.90
5200;DHT22;2619;47.868;11.892;2022-08-18T17:01:48;24.70;99.90
5200;DHT22;2619;47.868;11.892;2022-08-18T17:04:32;24.50;99.90
5200;DHT22;2619;47.868;11.892;2022-08-18T17:06:58;24.50;99.90
5200;DHT22;2619;47.868;11.892;2022-08-18T17:09:25;24.50;99.90
5200;DHT22;2619;47.868;11.892;2022-08-18T17:11:52;24.40;99.90
5200;DHT22;2619;47.868;11.892;2022-08-18T17:14:20;24.40;99.90
5200;DHT22;2619;47.868;11.892;2022-08-18T17:16:47;24.40;99.90
5200;DHT22;2619;47.868;11.892;2022-08-18T17:19:13;24.50;99.90
5200;DHT22;2619;47.868;11.892;2022-08-18T17:21:39;24.40;99.90
5200;DHT22;2619;47.868;11.892;2022-08-18T17:24:07;24.40;99.90
5200;DHT22;2619;47.868;11.892;2022-08-18T17:29:30;24.00;99.90
5200;DHT22;2619;47.868;11.892;2022-08-18T17:32:20;23.80;99.90
5200;DHT22;2619;47.868;11.892;2022-08-18T17:34:53;23.60;99.90
5200;DHT22;2619;47.868;11.892;2022-08-18T17:37:20;23.40;99.90
5200;DHT22;2619;47.868;11.892;2022-08-18T17:40:04;23.30;99.90
5200;DHT22;2619;47.868;11.892;2022-08-18T17:42:31;23.10;99.90
5200;DHT22;2619;47.868;11.892;2022-08-18T17:45:04;22.80;99.90
5200;DHT22;2619;47.868;11.892;2022-08-18T17:47:35;22.60;99.90
5200;DHT22;2619;47.868;11.892;2022-08-18T17:50:05;22.50;99.90
5200;DHT22;2619;47.868;11.892;2022-08-18T17:52:54;22.40;99.90
5200;DHT22;2619;47.868;11.892;2022-08-18T17:55:36;22.30;99.90
5200;DHT22;2619;47.868;11.892;2022-08-18T17:58:22;22.10;99.90
5200;DHT22;2619;47.868;11.892;2022-08-18T18:00:50;22.00;99.90
5200;DHT22;2619;47.868;11.892;2022-08-18T18:03:15;21.80;99.90
5200;DHT22;2619;47.868;11.892;2022-08-18T18:05:46;21.80;99.90
5200;DHT22;2619;47.868;11.892;2022-08-18T18:08:13;21.70;99.90
5200;DHT22;2619;47.868;11.892;2022-08-18T18:15:44;21.30;99.90
5200;DHT22;2619;47.868;11.892;2022-08-18T18:18:34;21.10;99.90
5200;DHT22;2619;47.868;11.892;2022-08-18T18:23:30;20.70;99.90
5200;DHT22;2619;47.868;11.892;2022-08-18T18:25:56;20.60;99.90
5200;DHT22;2619;47.868;11.892;2022-08-18T18:28:31;20.50;99.90